Time;durP1;ratioP1;P1;durP2;ratioP2;P2;SDS_P1;SDS_P2;PMS_P1;PMS_P2;Temp;Humidity;BMP_temperature;BMP_pressure;BME280_temperature;BME280_humidity;BME280_pressure;Samples;Min_cycle;Max_cycle;Signal;HPM_P1;HPM_P2
2023/11/09 00:00:09;;;;;;;0.80;0.55;;;6.80;1.00;;;;;;6208374;23;20028;-81
2023/11/09 00:02:35;;;;;;;0.70;0.50;;;6.80;1.00;;;;;;6207444;23;20083;-82
2023/11/09 00:05:03;;;;;;;0.80;0.50;;;6.80;1.00;;;;;;6183126;23;20024;-81
2023/11/09 00:07:31;;;;;;;0.85;0.70;;;6.80;1.00;;;;;;6208174;23;20078;-82
2023/11/09 00:10:02;;;;;;;0.82;0.63;;;6.90;1.00;;;;;;6182915;23;20389;-82
2023/11/09 00:12:29;;;;;;;1.23;0.85;;;6.80;99.90;;;;;;6182601;23;20016;-82
2023/11/09 00:14:57;;;;;;;0.50;0.50;;;6.80;99.90;;;;;;6232333;23;20031;-82
2023/11/09 00:17:24;;;;;;;1.00;0.47;;;6.80;1.00;;;;;;6206847;23;20056;-81
2023/11/09 00:19:51;;;;;;;1.10;0.63;;;6.80;1.00;;;;;;6207451;23;20026;-82
2023/11/09 00:22:19;;;;;;;0.60;0.47;;;6.80;1.00;;;;;;6183114;23;20379;-82
2023/11/09 00:24:47;;;;;;;0.45;0.40;;;6.80;99.90;;;;;;6183590;23;20474;-82
2023/11/09 00:27:20;;;;;;;0.45;0.40;;;6.80;99.90;;;;;;6182294;23;20028;-82
2023/11/09 00:29:47;;;;;;;1.02;0.60;;;6.80;99.90;;;;;;6182566;23;20064;-82
2023/11/09 00:32:17;;;;;;;0.65;0.40;;;6.80;99.90;;;;;;6206821;23;20399;-82
2023/11/09 00:34:44;;;;;;;0.65;0.40;;;6.80;99.90;;;;;;6207726;23;20536;-80
2023/11/09 00:37:12;;;;;;;0.65;0.40;;;6.70;99.90;;;;;;6207261;23;20047;-81
2023/11/09 00:39:39;;;;;;;0.73;0.47;;;6.70;99.90;;;;;;6182715;23;20031;-82
2023/11/09 00:42:06;;;;;;;0.40;0.40;;;6.70;99.90;;;;;;6207206;23;20140;-82
2023/11/09 00:44:33;;;;;;;0.90;0.60;;;6.70;99.90;;;;;;6208048;23;20019;-81
2023/11/09 00:47:02;;;;;;;1.25;0.50;;;6.80;99.90;;;;;;6206068;23;20086;-81
2023/11/09 00:49:29;;;;;;;0.30;0.30;;;6.80;99.90;;;;;;6182859;23;20024;-81
2023/11/09 00:51:56;;;;;;;0.93;0.70;;;6.80;20.40;;;;;;6182910;23;20031;-81
2023/11/09 00:54:23;;;;;;;0.55;0.40;;;6.70;99.90;;;;;;6182615;23;20367;-81
2023/11/09 00:56:50;;;;;;;0.70;0.57;;;6.80;43.20;;;;;;6182663;23;20023;-81
2023/11/09 00:59:16;;;;;;;1.00;0.50;;;6.80;1.00;;;;;;6207808;23;20024;-82
2023/11/09 01:01:43;;;;;;;0.82;0.40;;;6.80;1.00;;;;;;6231133;23;20103;-81
2023/11/09 01:04:11;;;;;;;0.32;0.30;;;6.70;1.00;;;;;;6232698;23;20023;-82
2023/11/09 01:06:39;;;;;;;0.30;0.30;;;6.70;99.90;;;;;;6207408;23;20037;-82
2023/11/09 01:09:06;;;;;;;0.95;0.43;;;6.70;99.90;;;;;;6182560;23;20024;-81
2023/11/09 01:11:33;;;;;;;0.57;0.38;;;6.80;99.90;;;;;;6207005;23;20029;-82
2023/11/09 01:14:00;;;;;;;0.65;0.43;;;6.80;99.90;;;;;;6207977;23;20082;-82
2023/11/09 01:16:27;;;;;;;0.93;0.43;;;6.80;99.90;;;;;;6206021;23;20020;-82
2023/11/09 01:18:55;;;;;;;0.77;0.40;;;6.80;66.00;;;;;;6233868;23;20200;-82
2023/11/09 01:21:22;;;;;;;0.98;0.52;;;6.80;1.00;;;;;;6207463;23;20020;-82
2023/11/09 01:23:49;;;;;;;0.38;0.30;;;6.80;1.00;;;;;;6206772;23;20082;-81
2023/11/09 01:26:15;;;;;;;0.35;0.35;;;6.80;1.00;;;;;;6207023;23;20024;-82
2023/11/09 01:28:43;;;;;;;0.70;0.50;;;6.80;99.90;;;;;;6182327;23;20023;-82
2023/11/09 01:31:10;;;;;;;0.35;0.35;;;6.80;99.90;;;;;;6209294;23;20381;-82
2023/11/09 01:33:37;;;;;;;0.47;0.30;;;6.90;99.90;;;;;;6234719;23;20051;-81
2023/11/09 01:36:05;;;;;;;0.75;0.45;;;6.90;1.00;;;;;;6211629;23;20051;-81
2023/11/09 01:38:33;;;;;;;0.63;0.40;;;6.80;99.90;;;;;;6211716;23;20019;-81
2023/11/09 01:41:06;;;;;;;1.00;0.52;;;6.80;99.90;;;;;;6236058;23;20033;-82
2023/11/09 01:43:33;;;;;;;1.15;0.60;;;6.90;99.90;;;;;;6210310;23;20020;-82
2023/11/09 01:46:01;;;;;;;0.75;0.45;;;6.90;99.90;;;;;;6186173;23;20039;-82
2023/11/09 01:48:28;;;;;;;0.82;0.50;;;6.90;99.90;;;;;;6184791;23;20114;-82
2023/11/09 01:50:55;;;;;;;0.63;0.50;;;6.90;99.90;;;;;;6186532;23;20378;-82
2023/11/09 01:53:22;;;;;;;0.98;0.50;;;6.90;99.90;;;;;;6236067;23;20024;-82
2023/11/09 01:55:49;;;;;;;0.40;0.40;;;6.90;17.30;;;;;;6237500;23;20372;-82
2023/11/09 01:58:16;;;;;;;0.73;0.30;;;6.90;1.00;;;;;;6185459;23;20078;-82
2023/11/09 02:00:43;;;;;;;0.75;0.40;;;6.90;57.80;;;;;;6210183;23;20020;-81
2023/11/09 02:03:10;;;;;;;0.30;0.30;;;6.90;66.00;;;;;;6185003;23;20171;-81
2023/11/09 02:05:37;;;;;;;0.45;0.32;;;6.90;1.00;;;;;;6211253;23;20031;-81
2023/11/09 02:08:05;;;;;;;0.60;0.30;;;6.80;99.90;;;;;;6235389;23;20095;-82
2023/11/09 02:10:32;;;;;;;0.90;0.40;;;6.80;99.90;;;;;;6210239;23;20012;-82
2023/11/09 02:13:01;;;;;;;0.35;0.35;;;6.80;99.90;;;;;;6186488;23;20024;-82
2023/11/09 02:15:28;;;;;;;0.75;0.40;;;6.80;99.90;;;;;;6210500;23;20067;-82
2023/11/09 02:17:55;;;;;;;0.40;0.40;;;6.80;99.90;;;;;;6182718;23;20047;-82
2023/11/09 02:20:23;;;;;;;0.32;0.32;;;6.80;1.00;;;;;;6198138;23;20031;-82
2023/11/09 02:22:52;;;;;;;0.98;0.60;;;6.80;1.00;;;;;;6204016;23;20096;-81
2023/11/09 02:25:19;;;;;;;1.33;0.80;;;6.80;99.90;;;;;;6210056;23;20024;-81
2023/11/09 02:27:46;;;;;;;1.08;0.77;;;6.80;99.90;;;;;;6184938;23;20047;-81
2023/11/09 02:30:13;;;;;;;0.80;0.63;;;6.90;99.90;;;;;;6209098;23;20431;-82
2023/11/09 02:32:40;;;;;;;1.05;0.50;;;6.80;99.90;;;;;;6205361;23;20466;-82
2023/11/09 02:35:08;;;;;;;1.15;0.50;;;6.80;99.90;;;;;;6182435;23;20016;-81
2023/11/09 02:37:36;;;;;;;0.70;0.40;;;6.90;99.90;;;;;;6208579;23;20506;-82
2023/11/09 02:40:04;;;;;;;0.77;0.45;;;6.90;99.90;;;;;;6211717;23;20017;-82
2023/11/09 02:42:31;;;;;;;1.77;0.55;;;6.80;99.90;;;;;;6211942;23;20016;-82
2023/11/09 02:44:58;;;;;;;0.57;0.40;;;6.90;99.90;;;;;;6237329;23;20478;-80
2023/11/09 02:47:25;;;;;;;0.40;0.30;;;6.80;99.90;;;;;;6209473;23;20024;-82
2023/11/09 02:49:52;;;;;;;1.60;0.50;;;6.80;99.90;;;;;;6184067;23;20639;-81
2023/11/09 02:52:20;;;;;;;0.50;0.50;;;6.90;36.90;;;;;;6211531;23;20035;-82
2023/11/09 02:54:47;;;;;;;1.58;0.60;;;6.90;10.20;;;;;;6210611;23;20016;-82
2023/11/09 02:57:15;;;;;;;0.30;0.30;;;6.80;1.00;;;;;;6210966;23;20020;-83
2023/11/09 02:59:43;;;;;;;0.85;0.63;;;6.90;1.00;;;;;;6235241;23;20039;-82
2023/11/09 03:02:10;;;;;;;0.47;0.40;;;6.90;1.00;;;;;;6211113;23;20355;-82
2023/11/09 03:04:38;;;;;;;1.48;0.40;;;7.00;46.40;;;;;;6184459;23;20020;-82
2023/11/09 03:07:08;;;;;;;1.48;0.40;;;7.00;99.90;;;;;;6186289;23;20203;-82
2023/11/09 03:09:37;;;;;;;0.90;0.40;;;7.10;99.90;;;;;;6211324;23;20036;-82
2023/11/09 03:12:07;;;;;;;0.65;0.52;;;7.10;99.90;;;;;;6186720;23;20017;-82
2023/11/09 03:14:34;;;;;;;0.98;0.50;;;7.20;99.90;;;;;;6210351;23;20020;-82
2023/11/09 03:17:03;;;;;;;0.60;0.40;;;7.30;92.80;;;;;;6185947;23;20027;-82
2023/11/09 03:19:30;;;;;;;2.22;0.45;;;7.30;10.80;;;;;;6184983;23;20031;-83
2023/11/09 03:21:58;;;;;;;0.50;0.32;;;7.40;12.50;;;;;;6211374;23;20016;-82
2023/11/09 03:24:27;;;;;;;1.23;0.43;;;7.40;1.00;;;;;;6235771;23;20026;-82
2023/11/09 03:26:54;;;;;;;0.55;0.40;;;7.40;1.00;;;;;;6211919;23;20379;-81
2023/11/09 03:29:21;;;;;;;1.10;0.47;;;7.40;1.00;;;;;;6186479;23;20052;-82
2023/11/09 03:31:48;;;;;;;0.85;0.45;;;7.50;1.00;;;;;;6235916;23;20020;-82
2023/11/09 03:34:15;;;;;;;0.88;0.43;;;7.50;1.00;;;;;;6211449;23;20048;-81
2023/11/09 03:36:43;;;;;;;0.50;0.38;;;7.50;1.00;;;;;;6184943;23;20369;-82
2023/11/09 03:39:11;;;;;;;1.30;0.93;;;7.50;1.00;;;;;;6185704;23;20020;-82
2023/11/09 03:41:39;;;;;;;1.00;0.60;;;7.50;99.90;;;;;;6211035;23;20386;-82
2023/11/09 03:44:06;;;;;;;1.02;0.77;;;7.50;99.90;;;;;;6186123;23;20024;-82
2023/11/09 03:46:34;;;;;;;0.90;0.45;;;7.50;99.90;;;;;;6211063;23;20024;-83
2023/11/09 03:49:02;;;;;;;1.33;0.45;;;7.50;99.90;;;;;;6211066;23;20414;-82
2023/11/09 03:51:30;;;;;;;0.55;0.40;;;7.50;99.90;;;;;;6210049;23;20039;-82
2023/11/09 03:53:57;;;;;;;0.40;0.30;;;7.50;99.90;;;;;;6211314;23;20017;-82
2023/11/09 03:56:24;;;;;;;0.75;0.47;;;7.50;99.90;;;;;;6211169;23;20028;-82
2023/11/09 03:58:51;;;;;;;0.47;0.30;;;7.60;99.90;;;;;;6212536;23;20024;-82
2023/11/09 04:01:19;;;;;;;0.35;0.30;;;7.60;99.90;;;;;;6187379;23;20024;-81
2023/11/09 04:03:46;;;;;;;0.60;0.38;;;7.70;99.90;;;;;;6212899;23;20046;-82
2023/11/09 04:06:17;;;;;;;0.55;0.30;;;7.70;99.90;;;;;;6186840;23;20051;-81
2023/11/09 04:08:45;;;;;;;0.65;0.40;;;7.80;99.90;;;;;;6213461;23;20043;-82
2023/11/09 04:11:13;;;;;;;0.38;0.30;;;7.90;99.90;;;;;;6212623;23;20024;-83
2023/11/09 04:13:40;;;;;;;0.80;0.50;;;7.90;99.90;;;;;;6187301;23;20020;-82
2023/11/09 04:16:08;;;;;;;0.45;0.28;;;8.00;1.00;;;;;;6237469;23;20028;-82
2023/11/09 04:18:38;;;;;;;0.30;0.20;;;8.00;1.00;;;;;;6213398;23;20024;-82
2023/11/09 04:21:05;;;;;;;0.20;0.20;;;8.10;1.00;;;;;;6236046;23;20024;-83
2023/11/09 04:23:32;;;;;;;0.38;0.30;;;8.10;99.90;;;;;;6187599;23;20024;-82
2023/11/09 04:25:58;;;;;;;0.40;0.30;;;8.20;99.90;;;;;;6212264;23;20019;-82
2023/11/09 04:28:32;;;;;;;0.85;0.30;;;8.20;99.90;;;;;;6212800;23;20466;-82
2023/11/09 04:31:00;;;;;;;;;;;8.20;1.00;;;;;;6212955;23;20424;-82
2023/11/09 04:33:28;;;;;;;0.40;0.40;;;8.30;1.00;;;;;;6239189;23;19930;-82
2023/11/09 04:35:55;;;;;;;1.33;0.40;;;8.30;99.90;;;;;;6186253;23;20052;-82
2023/11/09 04:38:23;;;;;;;0.63;0.30;;;8.30;99.90;;;;;;6187868;23;20479;-82
2023/11/09 04:41:04;;;;;;;0.50;0.40;;;8.40;1.00;;;;;;6212158;23;20654;-82
2023/11/09 04:43:32;;;;;;;2.88;0.77;;;8.40;1.00;;;;;;6212816;23;20020;-82
2023/11/09 04:46:05;;;;;;;0.57;0.50;;;8.40;1.00;;;;;;6212488;23;20027;-82
2023/11/09 04:48:43;;;;;;;1.23;0.43;;;8.50;1.00;;;;;;6189382;23;20032;-82
2023/11/09 04:51:29;;;;;;;0.80;0.40;;;8.50;1.00;;;;;;6212892;23;20055;-82
2023/11/09 04:54:06;;;;;;;0.75;0.40;;;8.50;45.00;;;;;;6190299;23;20391;-81
2023/11/09 05:07:30;;;;;;;0.77;0.40;;;8.50;81.40;;;;;;6238253;23;20495;-82
2023/11/09 05:09:57;;;;;;;0.52;0.43;;;8.50;99.90;;;;;;6210891;23;20035;-83
2023/11/09 05:12:24;;;;;;;1.60;0.40;;;8.60;99.90;;;;;;6212871;23;20020;-81
2023/11/09 05:14:52;;;;;;;0.80;0.40;;;8.50;99.90;;;;;;6212031;23;20021;-82
2023/11/09 05:17:22;;;;;;;0.70;0.50;;;8.60;99.90;;;;;;6187513;23;20046;-82
2023/11/09 05:19:50;;;;;;;0.65;0.50;;;8.60;99.90;;;;;;6211002;23;20020;-82
2023/11/09 05:22:18;;;;;;;1.45;0.55;;;8.60;99.90;;;;;;6187972;23;20024;-81
2023/11/09 05:24:45;;;;;;;0.73;0.30;;;8.60;1.00;;;;;;6211741;23;20016;-82
2023/11/09 05:27:13;;;;;;;1.02;0.50;;;8.60;18.50;;;;;;6212441;23;20020;-81
2023/11/09 05:29:39;;;;;;;1.05;0.50;;;8.60;47.50;;;;;;6211281;23;20077;-82
2023/11/09 05:32:08;;;;;;;2.03;0.55;;;8.60;99.90;;;;;;6212089;23;20024;-82
2023/11/09 05:34:35;;;;;;;0.73;0.47;;;8.70;99.90;;;;;;6209425;23;20027;-82
2023/11/09 05:37:03;;;;;;;0.95;0.40;;;8.70;78.50;;;;;;6212081;23;20020;-82
2023/11/09 05:39:33;;;;;;;0.90;0.50;;;8.70;1.00;;;;;;6186858;23;20020;-82
2023/11/09 05:42:00;;;;;;;1.98;0.55;;;8.60;1.00;;;;;;6211783;23;20020;-82
2023/11/09 05:44:27;;;;;;;1.05;0.60;;;8.60;1.00;;;;;;6211739;23;20103;-81
2023/11/09 05:46:54;;;;;;;1.35;0.50;;;8.60;12.70;;;;;;6211397;23;20028;-81
2023/11/09 05:49:25;;;;;;;0.82;0.43;;;8.60;12.80;;;;;;6183227;23;20291;-82
2023/11/09 05:51:53;;;;;;;1.02;0.55;;;8.70;33.30;;;;;;6234328;23;20084;-82
2023/11/09 05:54:21;;;;;;;1.27;0.47;;;8.70;1.00;;;;;;6183242;23;20019;-84
2023/11/09 05:56:49;;;;;;;1.40;0.47;;;8.70;2.60;;;;;;6235595;23;20106;-82
2023/11/09 05:59:17;;;;;;;0.40;0.28;;;8.70;1.00;;;;;;6234146;23;20078;-83
2023/11/09 06:01:44;;;;;;;0.50;0.40;;;8.70;1.00;;;;;;6236404;23;20083;-83
2023/11/09 06:04:12;;;;;;;0.40;0.30;;;8.80;1.00;;;;;;6205719;23;20036;-83
2023/11/09 06:06:39;;;;;;;0.63;0.40;;;8.80;1.00;;;;;;6230836;23;20024;-83
2023/11/09 06:09:06;;;;;;;0.70;0.40;;;8.80;1.00;;;;;;6233313;23;20020;-84
2023/11/09 06:11:34;;;;;;;0.98;0.50;;;8.80;1.00;;;;;;6186014;23;20020;-83
2023/11/09 06:14:03;;;;;;;1.40;0.47;;;8.90;42.60;;;;;;6211318;23;20055;-83
2023/11/09 06:16:32;;;;;;;0.45;0.30;;;8.90;50.40;;;;;;6210600;23;20024;-83
2023/11/09 06:19:02;;;;;;;0.20;0.20;;;8.90;99.90;;;;;;6235681;23;20027;-83
2023/11/09 06:21:32;;;;;;;0.77;0.40;;;8.90;99.90;;;;;;6230593;23;20103;-84
2023/11/09 06:23:59;;;;;;;0.63;0.35;;;9.00;99.90;;;;;;6235384;23;20099;-91
2023/11/09 06:26:26;;;;;;;0.30;0.30;;;9.00;99.90;;;;;;6235390;23;20024;-90
2023/11/09 06:28:54;;;;;;;0.47;0.30;;;9.00;99.90;;;;;;6230771;23;20094;-83
2023/11/09 06:31:22;;;;;;;0.63;0.20;;;9.10;99.90;;;;;;6234860;23;20621;-83
2023/11/09 06:33:51;;;;;;;0.88;0.32;;;9.10;29.10;;;;;;6234576;23;20031;-83
2023/11/09 06:36:19;;;;;;;0.20;0.20;;;9.10;12.00;;;;;;6208676;23;20088;-83
2023/11/09 06:38:47;;;;;;;0.82;0.47;;;9.10;81.80;;;;;;6204353;23;20075;-84
2023/11/09 06:41:15;;;;;;;0.75;0.43;;;9.10;99.90;;;;;;6180509;23;20500;-83
2023/11/09 06:43:42;;;;;;;1.17;0.50;;;9.00;99.90;;;;;;6234032;23;20044;-82
2023/11/09 06:46:09;;;;;;;0.20;0.20;;;9.00;1.00;;;;;;6209610;23;20020;-86
2023/11/09 06:48:36;;;;;;;0.30;0.30;;;8.90;99.90;;;;;;6210396;23;20159;-83
2023/11/09 06:51:04;;;;;;;0.40;0.40;;;8.90;1.00;;;;;;6183196;23;20549;-81
2023/11/09 06:53:30;;;;;;;0.47;0.30;;;8.90;99.90;;;;;;6181966;23;20532;-76
2023/11/09 06:55:57;;;;;;;0.30;0.30;;;8.90;99.90;;;;;;6206249;23;20386;-76
2023/11/09 06:58:24;;;;;;;0.70;0.30;;;8.90;1.00;;;;;;6206024;23;20024;-76
2023/11/09 07:00:51;;;;;;;0.40;0.30;;;8.80;99.90;;;;;;6227802;23;20262;-76
2023/11/09 07:03:19;;;;;;;0.40;0.30;;;8.80;1.00;;;;;;6216787;23;20055;-76
2023/11/09 07:05:47;;;;;;;0.55;0.35;;;8.60;99.90;;;;;;6227766;23;20044;-76
2023/11/09 07:08:14;;;;;;;0.20;0.20;;;8.50;1.00;;;;;;6203359;23;20028;-76
2023/11/09 07:10:41;;;;;;;0.52;0.40;;;8.50;1.00;;;;;;6228874;23;20027;-76
2023/11/09 07:13:08;;;;;;;0.50;0.35;;;8.40;1.00;;;;;;6207154;23;20032;-76
2023/11/09 07:15:34;;;;;;;0.98;0.30;;;8.30;99.90;;;;;;6207354;23;20024;-76
2023/11/09 07:18:03;;;;;;;0.52;0.30;;;8.20;52.00;;;;;;6232719;23;20130;-76
2023/11/09 07:20:35;;;;;;;0.77;0.55;;;8.10;99.90;;;;;;6225872;23;20355;-80
2023/11/09 07:23:06;;;;;;;0.30;0.30;;;8.00;99.90;;;;;;6204640;23;20091;-79
2023/11/09 07:25:36;;;;;;;0.40;0.30;;;7.90;99.90;;;;;;6209136;23;20027;-79
2023/11/09 07:28:04;;;;;;;0.28;0.25;;;7.90;1.00;;;;;;6209742;23;20488;-80
2023/11/09 07:30:32;;;;;;;0.55;0.40;;;7.90;88.80;;;;;;6233885;23;20466;-80
2023/11/09 07:33:00;;;;;;;0.20;0.20;;;7.80;99.90;;;;;;6208775;23;20027;-79
2023/11/09 07:35:29;;;;;;;0.20;0.20;;;7.80;99.90;;;;;;6206245;23;20292;-79
2023/11/09 07:37:56;;;;;;;0.45;0.30;;;7.80;99.90;;;;;;6208845;23;20031;-78
2023/11/09 07:40:23;;;;;;;0.28;0.28;;;7.80;99.90;;;;;;6210649;23;20551;-79
2023/11/09 07:42:50;;;;;;;0.20;0.20;;;7.80;99.90;;;;;;6186724;23;20590;-79
2023/11/09 07:45:16;;;;;;;0.60;0.28;;;7.80;99.90;;;;;;6210681;23;20020;-79
2023/11/09 07:47:45;;;;;;;0.30;0.30;;;7.90;99.90;;;;;;6208394;23;20028;-78
2023/11/09 07:50:14;;;;;;;0.30;0.30;;;7.90;99.90;;;;;;6230606;23;20345;-78
2023/11/09 07:52:40;;;;;;;0.35;0.25;;;7.90;99.90;;;;;;6211385;23;20039;-78
2023/11/09 07:55:07;;;;;;;0.55;0.32;;;7.90;49.20;;;;;;6211227;23;20051;-79
2023/11/09 07:57:34;;;;;;;0.65;0.40;;;8.00;1.00;;;;;;6186975;23;20016;-78
2023/11/09 08:00:03;;;;;;;0.88;0.40;;;8.10;1.00;;;;;;6211387;23;20027;-80
2023/11/09 08:02:31;;;;;;;0.82;0.52;;;8.20;1.00;;;;;;6233792;23;20529;-79
2023/11/09 08:04:58;;;;;;;0.47;0.30;;;8.30;99.90;;;;;;6230348;23;20061;-79
2023/11/09 08:07:26;;;;;;;0.20;0.20;;;8.30;99.90;;;;;;6210066;23;20099;-79
2023/11/09 08:09:53;;;;;;;0.50;0.38;;;8.40;99.90;;;;;;6186513;23;20099;-79
2023/11/09 08:12:20;;;;;;;0.10;0.10;;;8.60;99.90;;;;;;6211568;23;20020;-80
2023/11/09 08:14:47;;;;;;;0.22;0.20;;;8.70;1.00;;;;;;6210763;23;20027;-79
2023/11/09 08:17:14;;;;;;;0.10;0.10;;;8.80;99.90;;;;;;6186561;23;20086;-79
2023/11/09 08:19:54;;;;;;;0.30;0.30;;;8.80;1.00;;;;;;6235768;23;20026;-80
2023/11/09 08:22:21;;;;;;;0.90;0.40;;;8.90;99.90;;;;;;6211559;23;20119;-79
2023/11/09 08:24:48;;;;;;;0.30;0.30;;;8.90;1.00;;;;;;6235917;23;20383;-80
2023/11/09 08:27:15;;;;;;;0.68;0.40;;;8.90;99.90;;;;;;6238156;23;20078;-79
2023/11/09 08:29:43;;;;;;;0.40;0.30;;;9.00;5.20;;;;;;6211048;23;20016;-79
2023/11/09 08:32:10;;;;;;;1.05;0.35;;;9.10;1.00;;;;;;6236076;23;20467;-80
2023/11/09 08:34:40;;;;;;;0.55;0.30;;;9.10;99.90;;;;;;6235836;23;20020;-79
2023/11/09 08:37:10;;;;;;;0.52;0.40;;;9.10;23.10;;;;;;6211337;23;20497;-79
2023/11/09 08:39:37;;;;;;;0.47;0.30;;;9.10;15.20;;;;;;6210640;23;20075;-80
2023/11/09 08:42:04;;;;;;;0.88;0.40;;;9.20;99.90;;;;;;6211009;23;20087;-79
2023/11/09 08:44:33;;;;;;;0.75;0.35;;;9.20;99.90;;;;;;6235302;23;20024;-80
2023/11/09 08:47:02;;;;;;;0.40;0.30;;;9.30;99.90;;;;;;6238560;23;20020;-79
2023/11/09 08:49:30;;;;;;;2.38;0.40;;;9.30;99.90;;;;;;6209265;23;20151;-79
2023/11/09 08:52:04;;;;;;;0.63;0.30;;;9.30;99.90;;;;;;6209876;23;20463;-80
2023/11/09 08:54:31;;;;;;;0.68;0.40;;;9.30;99.90;;;;;;6206238;23;20059;-80
2023/11/09 08:56:59;;;;;;;0.47;0.40;;;9.30;1.00;;;;;;6233937;23;20024;-80
2023/11/09 08:59:27;;;;;;;1.40;0.30;;;9.30;1.00;;;;;;6206706;23;20856;-80
2023/11/09 09:01:56;;;;;;;0.30;0.30;;;9.30;1.00;;;;;;6233576;23;20023;-79
2023/11/09 09:04:24;;;;;;;0.25;0.25;;;9.40;1.00;;;;;;6185809;23;20027;-79
2023/11/09 09:06:52;;;;;;;0.20;0.20;;;9.50;1.00;;;;;;6236956;23;20426;-80
2023/11/09 09:09:22;;;;;;;0.15;0.15;;;9.40;1.00;;;;;;6211037;23;20020;-80
2023/11/09 09:11:57;;;;;;;0.60;0.30;;;9.40;1.00;;;;;;6213123;23;20024;-79
2023/11/09 09:14:24;;;;;;;0.25;0.22;;;9.40;99.90;;;;;;6234239;23;20320;-79
2023/11/09 09:16:50;;;;;;;0.82;0.40;;;9.50;99.90;;;;;;6235494;23;20320;-81
2023/11/09 09:19:17;;;;;;;1.27;0.40;;;9.50;99.90;;;;;;6228196;23;20182;-79
2023/11/09 09:21:44;;;;;;;0.13;0.13;;;9.50;99.90;;;;;;6225405;23;20024;-79
2023/11/09 09:24:11;;;;;;;0.20;0.20;;;9.50;99.90;;;;;;6201962;23;20454;-79
2023/11/09 09:26:38;;;;;;;0.32;0.20;;;9.60;99.90;;;;;;6202058;23;20028;-79
2023/11/09 09:29:06;;;;;;;0.20;0.20;;;9.60;99.90;;;;;;6202778;23;20031;-79
2023/11/09 09:31:33;;;;;;;0.55;0.50;;;9.60;99.90;;;;;;6227547;23;20107;-79
2023/11/09 09:34:02;;;;;;;0.25;0.25;;;9.70;99.90;;;;;;6199051;23;20434;-76
2023/11/09 09:36:29;;;;;;;0.30;0.30;;;9.70;99.90;;;;;;6225188;23;20078;-80
2023/11/09 09:38:57;;;;;;;0.55;0.30;;;9.80;99.90;;;;;;6201250;23;20462;-77
2023/11/09 09:41:28;;;;;;;0.55;0.20;;;9.90;99.90;;;;;;6227105;23;20020;-76
2023/11/09 09:43:57;;;;;;;1.33;0.30;;;9.90;99.90;;;;;;6228026;23;20319;-76
2023/11/09 09:46:26;;;;;;;0.32;0.30;;;10.00;99.90;;;;;;6177647;23;20058;-76
2023/11/09 09:48:55;;;;;;;0.22;0.20;;;10.10;99.90;;;;;;6201521;23;20315;-76
2023/11/09 09:51:22;;;;;;;0.45;0.40;;;10.20;99.90;;;;;;6225187;23;20040;-75
2023/11/09 09:53:49;;;;;;;0.57;0.30;;;10.30;99.90;;;;;;6230666;23;20644;-76
2023/11/09 09:56:16;;;;;;;0.65;0.30;;;10.30;99.90;;;;;;6205962;23;20019;-76
2023/11/09 09:58:43;;;;;;;0.68;0.30;;;10.40;99.90;;;;;;6180668;23;20027;-76
2023/11/09 10:01:11;;;;;;;0.77;0.40;;;10.50;99.90;;;;;;6232461;23;20040;-76
2023/11/09 10:03:38;;;;;;;0.73;0.30;;;10.50;99.90;;;;;;6206235;23;20107;-76
2023/11/09 10:06:06;;;;;;;0.60;0.20;;;10.40;99.90;;;;;;6231743;23;20027;-76
2023/11/09 10:08:33;;;;;;;0.20;0.20;;;10.40;99.90;;;;;;6206023;23;20047;-76
2023/11/09 10:10:59;;;;;;;3.53;0.57;;;10.30;99.90;;;;;;6181093;23;20296;-76
2023/11/09 10:13:27;;;;;;;0.45;0.45;;;10.30;99.90;;;;;;6231191;23;20024;-76
2023/11/09 10:15:58;;;;;;;0.50;0.30;;;10.20;99.90;;;;;;6181257;23;20526;-76
2023/11/09 10:18:26;;;;;;;0.30;0.20;;;10.20;99.90;;;;;;6206861;23;20024;-76
2023/11/09 10:20:57;;;;;;;0.90;0.40;;;10.20;99.90;;;;;;6231529;23;20024;-76
2023/11/09 10:23:26;;;;;;;0.40;0.20;;;10.20;99.90;;;;;;6230905;23;20024;-76
2023/11/09 10:25:54;;;;;;;0.40;0.40;;;10.30;99.90;;;;;;6232564;23;20180;-76
2023/11/09 10:28:22;;;;;;;1.65;0.50;;;10.30;99.90;;;;;;6231192;23;20467;-76
2023/11/09 10:30:49;;;;;;;1.10;0.40;;;10.30;99.90;;;;;;6206225;23;20777;-76
2023/11/09 10:33:17;;;;;;;1.35;0.50;;;10.40;99.90;;;;;;6231007;23;20031;-76
2023/11/09 10:35:47;;;;;;;2.55;0.60;;;10.50;99.90;;;;;;6204520;23;20020;-76
2023/11/09 10:38:20;;;;;;;0.93;0.50;;;10.50;99.90;;;;;;6233103;23;20038;-76
2023/11/09 10:40:47;;;;;;;0.40;0.40;;;10.60;99.90;;;;;;6206369;23;20024;-76
2023/11/09 10:43:34;;;;;;;2.45;0.60;;;10.70;99.90;;;;;;6232453;23;20026;-75
2023/11/09 10:46:07;;;;;;;1.63;0.43;;;10.60;99.90;;;;;;6232385;23;20020;-76
2023/11/09 10:48:38;;;;;;;;;;;10.70;99.90;;;;;;6231890;23;20023;-76
2023/11/09 10:51:08;;;;;;;0.90;0.50;;;10.60;99.90;;;;;;6230523;23;20320;-76
2023/11/09 10:53:37;;;;;;;1.20;0.50;;;10.60;99.90;;;;;;6230601;23;20016;-76
2023/11/09 10:56:09;;;;;;;1.23;0.57;;;10.60;99.90;;;;;;6230563;23;20024;-76
2023/11/09 10:58:40;;;;;;;1.15;0.60;;;10.60;99.90;;;;;;6232234;23;20020;-76
2023/11/09 11:01:07;;;;;;;0.85;0.43;;;10.60;99.90;;;;;;6231637;23;20026;-76
2023/11/09 11:03:43;;;;;;;1.48;0.40;;;10.60;99.90;;;;;;6205145;23;20020;-76
2023/11/09 11:06:16;;;;;;;0.95;0.50;;;10.60;99.90;;;;;;6229523;23;20398;-76
2023/11/09 11:08:44;;;;;;;0.75;0.40;;;10.60;99.90;;;;;;6231987;23;20028;-76
2023/11/09 11:11:17;;;;;;;1.38;0.40;;;10.50;99.90;;;;;;6230116;23;20376;-76
2023/11/09 11:13:48;;;;;;;0.90;0.50;;;10.50;99.90;;;;;;6180547;23;20398;-76
2023/11/09 11:16:22;;;;;;;1.08;0.50;;;10.50;99.90;;;;;;6205280;23;20023;-76
2023/11/09 11:19:19;;;;;;;0.47;0.35;;;10.50;99.90;;;;;;6230780;23;20470;-76
2023/11/09 11:22:22;;;;;;;0.80;0.50;;;10.50;99.90;;;;;;6229612;23;20026;-77
2023/11/09 11:25:19;;;;;;;0.38;0.32;;;10.50;99.90;;;;;;6231747;23;20020;-77
2023/11/09 11:28:00;;;;;;;0.35;0.32;;;10.60;99.90;;;;;;6231515;23;20382;-77
2023/11/09 11:30:32;;;;;;;0.65;0.40;;;10.50;99.90;;;;;;6205756;23;20020;-77
2023/11/09 11:33:00;;;;;;;1.52;0.40;;;10.50;99.90;;;;;;6202347;23;20355;-77
2023/11/09 11:35:33;;;;;;;0.68;0.40;;;10.60;99.90;;;;;;6173668;23;20048;-77
2023/11/09 11:38:07;;;;;;;;;;;10.60;99.90;;;;;;6201070;23;20113;-77
2023/11/09 11:40:39;;;;;;;0.38;0.30;;;10.60;99.90;;;;;;6198476;23;20369;-76
2023/11/09 11:43:08;;;;;;;0.47;0.30;;;10.60;99.90;;;;;;6196379;23;20432;-76
2023/11/09 11:45:36;;;;;;;0.52;0.43;;;10.60;99.90;;;;;;6197304;23;20043;-76
2023/11/09 11:48:07;;;;;;;0.30;0.25;;;10.70;99.90;;;;;;6194679;23;20110;-76
2023/11/09 11:50:34;;;;;;;0.45;0.45;;;10.70;99.90;;;;;;6168970;23;20025;-76
2023/11/09 11:53:01;;;;;;;1.25;0.65;;;10.60;99.90;;;;;;6196220;23;20292;-76
2023/11/09 11:55:34;;;;;;;1.45;0.60;;;10.60;99.90;;;;;;6192246;23;20032;-76
2023/11/09 11:58:06;;;;;;;1.13;0.52;;;10.70;99.90;;;;;;6169849;23;20025;-76
2023/11/09 12:00:40;;;;;;;0.55;0.55;;;10.70;99.90;;;;;;6197406;23;20091;-75
2023/11/09 12:03:10;;;;;;;1.13;0.43;;;10.80;99.90;;;;;;6177448;23;20031;-75
2023/11/09 12:05:40;;;;;;;0.93;0.52;;;10.80;99.90;;;;;;6171382;23;20021;-75
2023/11/09 12:08:12;;;;;;;1.40;0.70;;;10.70;99.90;;;;;;6196494;23;20423;-76
2023/11/09 12:10:40;;;;;;;0.73;0.50;;;10.80;99.90;;;;;;6169319;23;20031;-76
2023/11/09 12:13:08;;;;;;;0.80;0.57;;;10.90;99.90;;;;;;6170586;23;20036;-76
2023/11/09 12:15:35;;;;;;;0.50;0.50;;;11.20;99.90;;;;;;6170987;23;20060;-76
2023/11/09 12:18:03;;;;;;;1.40;0.50;;;11.70;99.90;;;;;;6198006;23;20534;-76
2023/11/09 12:20:33;;;;;;;0.50;0.50;;;11.90;99.50;;;;;;6197719;23;20024;-85
2023/11/09 12:23:07;;;;;;;1.48;0.57;;;11.90;83.30;;;;;;6149029;23;20064;-85
2023/11/09 12:25:53;;;;;;;1.83;0.65;;;11.90;60.50;;;;;;6170775;23;20779;-79
2023/11/09 12:28:21;;;;;;;2.33;0.77;;;11.60;34.40;;;;;;6171029;23;20396;-80
2023/11/09 12:30:49;;;;;;;1.30;0.50;;;11.40;30.00;;;;;;6202078;23;20091;-79
2023/11/09 12:33:19;;;;;;;2.65;0.70;;;11.50;31.00;;;;;;6233061;23;20494;-80
2023/11/09 12:36:03;;;;;;;2.97;1.02;;;11.70;28.20;;;;;;6224192;23;20371;-80
2023/11/09 12:38:33;;;;;;;0.77;0.50;;;11.90;22.30;;;;;;6226858;23;20207;-80
2023/11/09 12:41:02;;;;;;;0.93;0.55;;;12.00;14.50;;;;;;6178248;23;20020;-81
2023/11/09 12:43:39;;;;;;;0.98;0.60;;;12.10;14.00;;;;;;6203356;23;20336;-81
2023/11/09 12:46:11;;;;;;;1.42;0.65;;;12.10;6.30;;;;;;6201405;23;20466;-79
2023/11/09 12:48:47;;;;;;;1.30;0.65;;;12.20;7.10;;;;;;6178055;23;20279;-79
2023/11/09 12:51:22;;;;;;;1.38;0.82;;;12.20;1.10;;;;;;6178320;23;20024;-79
2023/11/09 12:53:52;;;;;;;0.75;0.57;;;12.30;1.00;;;;;;6227849;23;20054;-90
2023/11/09 12:56:20;;;;;;;1.45;0.75;;;12.40;1.00;;;;;;6184305;23;20031;-88
2023/11/09 12:59:01;;;;;;;1.73;1.05;;;12.40;1.00;;;;;;6233979;23;20020;-91
2023/11/09 13:01:29;;;;;;;0.75;0.55;;;12.30;1.00;;;;;;6208814;23;20028;-92
2023/11/09 13:03:57;;;;;;;2.72;0.70;;;12.20;1.00;;;;;;6184607;23;20059;-90
2023/11/09 13:06:25;;;;;;;1.88;0.75;;;12.20;1.00;;;;;;6209781;23;20027;-90
2023/11/09 13:09:32;;;;;;;2.15;1.00;;;12.30;1.00;;;;;;6209569;23;20328;-88
2023/11/09 13:11:54;;;;;;;2.20;0.80;;;12.50;1.00;;;;;;6234470;23;20222;-90
2023/11/09 13:14:35;;;;;;;1.45;0.60;;;12.80;1.00;;;;;;6234856;23;20032;-88
2023/11/09 13:17:03;;;;;;;1.85;0.70;;;12.90;1.00;;;;;;6212396;23;20408;-88